Time;durP1;ratioP1;P1;durP2;ratioP2;P2;SDS_P1;SDS_P2;PMS_P1;PMS_P2;Temp;Humidity;BMP_temperature;BMP_pressure;BME280_temperature;BME280_humidity;BME280_pressure;Samples;Min_cycle;Max_cycle;Signal;HPM_P1;HPM_P2
2022/01/19 00:00:32;;;;;;;10.55;6.00;;;;;;;;;;5024824;28;20036;-60
2022/01/19 00:02:57;;;;;;;11.20;5.57;;;;;;;;;;5029422;28;20037;-59
2022/01/19 00:05:23;;;;;;;14.55;5.68;;;;;;;;;;5022596;28;20014;-61
2022/01/19 00:07:49;;;;;;;13.57;6.55;;;;;;;;;;5024701;28;20438;-53
2022/01/19 00:10:19;;;;;;;13.30;6.43;;;;;;;;;;5025890;28;20049;-58
2022/01/19 00:12:45;;;;;;;14.32;6.80;;;;;;;;;;5024709;28;21185;-56
2022/01/19 00:15:11;;;;;;;13.88;6.47;;;;;;;;;;5006556;28;20431;-56
2022/01/19 00:17:37;;;;;;;16.60;7.18;;;;;;;;;;5023783;28;20125;-58
2022/01/19 00:20:05;;;;;;;13.98;6.93;;;;;;;;;;5023243;28;20033;-57
2022/01/19 00:22:30;;;;;;;17.65;7.47;;;;;;;;;;5028652;28;20100;-55
2022/01/19 00:24:56;;;;;;;15.45;6.97;;;;;;;;;;5028114;28;20149;-54
2022/01/19 00:27:21;;;;;;;14.35;6.43;;;;;;;;;;5023852;28;20503;-56
2022/01/19 00:29:47;;;;;;;16.52;6.93;;;;;;;;;;5024943;28;20460;-55
2022/01/19 00:32:12;;;;;;;13.20;7.10;;;;;;;;;;5024909;28;20025;-57
2022/01/19 00:34:37;;;;;;;14.98;7.13;;;;;;;;;;5025345;28;20034;-55
2022/01/19 00:37:03;;;;;;;17.08;6.93;;;;;;;;;;5022436;28;20025;-55
2022/01/19 00:39:32;;;;;;;14.57;6.57;;;;;;;;;;5028227;28;20021;-57
2022/01/19 00:41:59;;;;;;;17.88;7.43;;;;;;;;;;5024968;28;20029;-54
2022/01/19 00:44:25;;;;;;;15.68;7.80;;;;;;;;;;5031660;28;20034;-53
2022/01/19 00:46:50;;;;;;;19.73;7.78;;;;;;;;;;5031546;28;20041;-59
2022/01/19 00:49:16;;;;;;;14.18;7.53;;;;;;;;;;5031845;28;20026;-60
2022/01/19 00:51:41;;;;;;;20.25;8.13;;;;;;;;;;5032046;28;20065;-55
2022/01/19 00:54:06;;;;;;;19.52;8.85;;;;;;;;;;5026882;28;20044;-62
2022/01/19 00:56:34;;;;;;;21.65;9.02;;;;;;;;;;5032046;28;20104;-56
2022/01/19 00:59:00;;;;;;;18.73;8.38;;;;;;;;;;5020559;28;20120;-59
2022/01/19 01:01:26;;;;;;;18.42;8.20;;;;;;;;;;5032138;28;20032;-59
2022/01/19 01:03:51;;;;;;;17.27;7.93;;;;;;;;;;5031412;28;20014;-59
2022/01/19 01:06:17;;;;;;;16.85;7.60;;;;;;;;;;5031892;28;20033;-68
2022/01/19 01:08:43;;;;;;;16.73;7.97;;;;;;;;;;5030731;28;20041;-57
2022/01/19 01:11:09;;;;;;;16.85;7.55;;;;;;;;;;5032184;28;20033;-58
2022/01/19 01:16:31;;;;;;;20.17;7.45;;;;;;;;;;5032370;28;20044;-59
2022/01/19 01:18:57;;;;;;;21.10;8.77;;;;;;;;;;5031923;28;20036;-55
2022/01/19 01:21:23;;;;;;;15.32;7.50;;;;;;;;;;5031650;28;20100;-56
2022/01/19 01:23:49;;;;;;;21.15;7.75;;;;;;;;;;5032103;28;20049;-56
2022/01/19 01:26:15;;;;;;;17.45;7.43;;;;;;;;;;5031820;28;20037;-55
2022/01/19 01:28:41;;;;;;;16.13;7.25;;;;;;;;;;5031781;28;20056;-57
2022/01/19 01:31:10;;;;;;;16.60;7.18;;;;;;;;;;5032446;28;20523;-59
2022/01/19 01:33:37;;;;;;;19.23;7.72;;;;;;;;;;5018072;28;20388;-61
2022/01/19 01:36:03;;;;;;;15.02;7.72;;;;;;;;;;5035645;28;20396;-60
2022/01/19 01:38:28;;;;;;;16.13;7.20;;;;;;;;;;5035721;28;20025;-60
2022/01/19 01:40:54;;;;;;;16.63;7.03;;;;;;;;;;5035715;28;20096;-57
2022/01/19 01:43:20;;;;;;;15.07;7.60;;;;;;;;;;5035773;28;20088;-66
2022/01/19 01:45:48;;;;;;;12.15;7.00;;;;;;;;;;5035850;28;20056;-58
2022/01/19 01:48:20;;;;;;;14.07;6.75;;;;;;;;;;5035597;28;20473;-57
2022/01/19 01:53:32;;;;;;;13.93;6.25;;;;;;;;;;5034057;28;20495;-53
2022/01/19 01:56:06;;;;;;;10.98;5.85;;;;;;;;;;5034316;28;20033;-56
2022/01/19 01:58:34;;;;;;;13.40;5.90;;;;;;;;;;5035179;28;20040;-56
2022/01/19 02:01:00;;;;;;;11.55;5.63;;;;;;;;;;5032112;28;20028;-54
2022/01/19 02:03:27;;;;;;;12.52;5.97;;;;;;;;;;5035023;28;20026;-53
2022/01/19 02:08:45;;;;;;;13.13;5.40;;;;;;;;;;4973814;28;20557;-58
2022/01/19 02:16:31;;;;;;;12.57;5.82;;;;;;;;;;4972513;28;20046;-61
2022/01/19 02:21:59;;;;;;;11.32;5.15;;;;;;;;;;4959728;28;20129;-58
2022/01/19 02:24:31;;;;;;;18.08;5.53;;;;;;;;;;4968166;28;20027;-53
2022/01/19 02:27:15;;;;;;;13.57;5.75;;;;;;;;;;4970924;28;20047;-64
2022/01/19 02:40:26;;;;;;;13.60;5.10;;;;;;;;;;4973900;28;20097;-58
2022/01/19 02:43:05;;;;;;;15.93;5.15;;;;;;;;;;4972556;28;20030;-53
2022/01/19 02:51:06;;;;;;;14.65;5.35;;;;;;;;;;5035028;28;20132;-55
2022/01/19 02:53:37;;;;;;;12.75;5.45;;;;;;;;;;5034708;28;20407;-57
2022/01/19 02:56:11;;;;;;;10.93;5.13;;;;;;;;;;5034428;28;20025;-55
2022/01/19 02:58:50;;;;;;;12.95;5.47;;;;;;;;;;5034328;28;20108;-57
2022/01/19 03:09:22;;;;;;;18.30;6.72;;;;;;;;;;5034234;28;20041;-55
2022/01/19 03:11:47;;;;;;;16.45;6.45;;;;;;;;;;5034457;28;20039;-58
2022/01/19 03:14:13;;;;;;;17.02;6.20;;;;;;;;;;5034172;28;20392;-59
2022/01/19 03:16:39;;;;;;;15.98;6.28;;;;;;;;;;5034007;28;20419;-55
2022/01/19 03:19:07;;;;;;;18.30;7.18;;;;;;;;;;5032591;28;20080;-59
2022/01/19 03:21:33;;;;;;;18.38;6.85;;;;;;;;;;5034190;28;20080;-56
2022/01/19 03:23:59;;;;;;;18.17;7.22;;;;;;;;;;5033952;28;20025;-60
2022/01/19 03:26:25;;;;;;;15.32;7.05;;;;;;;;;;5030541;28;20076;-55
2022/01/19 03:28:50;;;;;;;21.95;7.25;;;;;;;;;;5029908;28;20021;-55
2022/01/19 03:31:16;;;;;;;15.55;6.65;;;;;;;;;;5029108;28;20033;-53
2022/01/19 03:33:41;;;;;;;16.88;7.55;;;;;;;;;;5029024;28;20033;-57
2022/01/19 03:36:07;;;;;;;17.30;8.27;;;;;;;;;;5034009;28;20743;-55
2022/01/19 03:38:32;;;;;;;16.88;7.82;;;;;;;;;;5033458;28;20040;-56
2022/01/19 03:40:57;;;;;;;15.48;7.38;;;;;;;;;;5033845;28;20026;-55
2022/01/19 03:43:23;;;;;;;19.25;7.15;;;;;;;;;;5033311;28;20030;-56
2022/01/19 03:45:53;;;;;;;20.20;7.70;;;;;;;;;;5033408;28;20029;-54
2022/01/19 03:48:45;;;;;;;18.02;7.90;;;;;;;;;;5032845;28;20376;-57
2022/01/19 03:51:11;;;;;;;13.60;6.95;;;;;;;;;;5025897;28;20033;-57
2022/01/19 03:53:38;;;;;;;19.60;8.13;;;;;;;;;;5033167;28;20024;-57
2022/01/19 03:56:04;;;;;;;15.02;6.88;;;;;;;;;;5033228;28;20392;-58
2022/01/19 03:58:30;;;;;;;17.70;7.80;;;;;;;;;;5032467;28;20095;-54
2022/01/19 04:00:57;;;;;;;19.63;7.65;;;;;;;;;;5033217;28;20415;-56
2022/01/19 04:06:24;;;;;;;14.95;7.38;;;;;;;;;;5033171;28;20033;-56
2022/01/19 04:08:50;;;;;;;16.92;6.80;;;;;;;;;;5032890;28;20408;-55
2022/01/19 04:11:17;;;;;;;17.48;8.07;;;;;;;;;;5032853;28;20033;-56
2022/01/19 04:14:21;;;;;;;15.77;7.30;;;;;;;;;;5032970;28;20037;-56
2022/01/19 04:16:44;;;;;;;18.05;7.53;;;;;;;;;;5020544;28;20095;-58
2022/01/19 04:21:55;;;;;;;21.55;9.25;;;;;;;;;;5033062;28;20044;-57
2022/01/19 04:24:21;;;;;;;18.83;9.93;;;;;;;;;;5032781;28;20112;-60
2022/01/19 04:26:58;;;;;;;14.38;6.32;;;;;;;;;;5032848;28;20072;-55
2022/01/19 04:29:24;;;;;;;15.70;6.65;;;;;;;;;;5031370;28;20148;-55
2022/01/19 04:31:50;;;;;;;14.10;6.30;;;;;;;;;;5032918;28;20052;-55
2022/01/19 04:34:17;;;;;;;18.58;7.75;;;;;;;;;;5032773;28;20405;-55
2022/01/19 04:37:22;;;;;;;15.00;6.47;;;;;;;;;;5032550;28;20033;-58
2022/01/19 04:46:09;;;;;;;17.15;8.13;;;;;;;;;;4954781;28;20034;-55
2022/01/19 05:06:38;;;;;;;16.05;7.53;;;;;;;;;;4951160;29;20035;-56
2022/01/19 05:09:22;;;;;;;18.85;7.50;;;;;;;;;;4952188;29;20151;-63
2022/01/19 05:14:36;;;;;;;12.45;5.90;;;;;;;;;;4913644;29;20096;-55
2022/01/19 05:17:02;;;;;;;15.57;7.13;;;;;;;;;;4914052;29;20036;-55
2022/01/19 05:19:28;;;;;;;17.08;6.53;;;;;;;;;;4926955;29;20094;-61
2022/01/19 05:21:53;;;;;;;19.60;7.07;;;;;;;;;;4952167;29;20027;-55
2022/01/19 05:24:18;;;;;;;14.10;6.53;;;;;;;;;;4950819;29;20083;-58
2022/01/19 05:26:45;;;;;;;11.65;6.43;;;;;;;;;;4946083;29;20491;-58
2022/01/19 05:29:11;;;;;;;16.83;7.32;;;;;;;;;;4946962;29;20474;-58
2022/01/19 05:31:36;;;;;;;19.45;8.10;;;;;;;;;;4952052;29;20059;-61
2022/01/19 05:34:02;;;;;;;14.63;7.03;;;;;;;;;;4951889;29;20035;-56
2022/01/19 05:36:27;;;;;;;19.98;7.30;;;;;;;;;;4951853;29;20035;-56
2022/01/19 05:38:53;;;;;;;16.15;7.95;;;;;;;;;;4951730;29;20040;-64
2022/01/19 05:41:21;;;;;;;17.73;7.07;;;;;;;;;;4935618;29;20032;-57
2022/01/19 05:43:46;;;;;;;16.25;7.57;;;;;;;;;;4951738;29;20166;-55
2022/01/19 05:46:12;;;;;;;18.05;8.52;;;;;;;;;;4951691;29;20125;-54
2022/01/19 05:48:37;;;;;;;20.60;8.38;;;;;;;;;;4951567;29;20046;-61
2022/01/19 05:51:03;;;;;;;19.15;9.07;;;;;;;;;;4973682;28;20049;-55
2022/01/19 05:53:28;;;;;;;22.25;8.57;;;;;;;;;;5031902;28;20021;-54
2022/01/19 05:55:54;;;;;;;21.45;8.30;;;;;;;;;;5031898;28;20084;-59
2022/01/19 05:58:19;;;;;;;21.33;8.77;;;;;;;;;;5031338;28;20376;-55
2022/01/19 06:00:44;;;;;;;18.90;8.50;;;;;;;;;;5031640;28;20018;-57
2022/01/19 06:03:10;;;;;;;16.20;8.40;;;;;;;;;;5023190;28;20025;-54
2022/01/19 06:05:35;;;;;;;24.63;8.50;;;;;;;;;;5031543;28;20076;-66
2022/01/19 06:10:58;;;;;;;15.63;7.47;;;;;;;;;;4935482;29;20144;-60
2022/01/19 06:13:25;;;;;;;20.48;9.18;;;;;;;;;;4931583;29;20103;-55
2022/01/19 06:15:51;;;;;;;21.80;9.30;;;;;;;;;;4937195;29;20031;-61
2022/01/19 06:18:18;;;;;;;23.13;9.70;;;;;;;;;;4937130;29;20427;-56
2022/01/19 06:20:44;;;;;;;25.23;9.25;;;;;;;;;;4937298;29;20058;-63
2022/01/19 06:23:10;;;;;;;27.13;9.90;;;;;;;;;;4943324;29;20035;-57
2022/01/19 06:25:35;;;;;;;27.08;10.40;;;;;;;;;;4936782;29;20039;-57
2022/01/19 06:28:02;;;;;;;21.98;8.98;;;;;;;;;;4939496;29;20613;-55
2022/01/19 06:30:27;;;;;;;23.40;9.85;;;;;;;;;;4934740;29;20219;-58
2022/01/19 06:32:53;;;;;;;25.75;10.63;;;;;;;;;;4935181;29;20117;-59
2022/01/19 06:35:19;;;;;;;23.58;10.10;;;;;;;;;;4935479;29;20039;-58
2022/01/19 06:37:45;;;;;;;22.15;9.10;;;;;;;;;;4935447;29;20036;-64
2022/01/19 06:40:13;;;;;;;29.10;9.63;;;;;;;;;;4935347;29;20047;-54
2022/01/19 06:42:39;;;;;;;24.45;10.45;;;;;;;;;;4935567;29;20036;-59
2022/01/19 06:45:05;;;;;;;24.50;10.02;;;;;;;;;;4934933;29;20031;-56
2022/01/19 06:47:31;;;;;;;24.58;10.30;;;;;;;;;;5013321;28;20034;-57
2022/01/19 06:49:57;;;;;;;29.20;10.82;;;;;;;;;;5028840;28;20025;-61
2022/01/19 06:52:23;;;;;;;23.25;10.43;;;;;;;;;;5034676;28;20056;-61
2022/01/19 06:54:49;;;;;;;26.35;10.85;;;;;;;;;;5032194;28;20099;-64
2022/01/19 06:57:14;;;;;;;25.08;10.15;;;;;;;;;;5033499;28;20040;-63
2022/01/19 06:59:40;;;;;;;26.50;12.10;;;;;;;;;;5034429;28;20029;-62
2022/01/19 07:02:05;;;;;;;29.70;11.32;;;;;;;;;;5033592;28;20116;-55
2022/01/19 07:04:31;;;;;;;31.73;11.20;;;;;;;;;;5034207;28;20014;-62
2022/01/19 07:06:56;;;;;;;33.35;11.82;;;;;;;;;;5030727;28;20034;-66
2022/01/19 07:09:22;;;;;;;25.40;10.48;;;;;;;;;;5026607;28;20022;-59
2022/01/19 07:11:48;;;;;;;28.88;11.82;;;;;;;;;;5034320;28;20034;-65
2022/01/19 07:14:13;;;;;;;24.63;11.00;;;;;;;;;;5033898;28;20029;-58
2022/01/19 07:16:39;;;;;;;23.02;10.73;;;;;;;;;;5034190;28;20108;-67
2022/01/19 07:19:05;;;;;;;23.60;10.60;;;;;;;;;;5033261;28;20099;-58
2022/01/19 07:21:31;;;;;;;27.63;9.90;;;;;;;;;;5023989;28;20508;-62
2022/01/19 07:23:56;;;;;;;24.17;10.70;;;;;;;;;;5032989;28;20068;-55
2022/01/19 07:26:22;;;;;;;24.75;10.13;;;;;;;;;;5033573;28;20029;-55
2022/01/19 07:28:48;;;;;;;23.15;10.73;;;;;;;;;;5032070;28;20033;-59
2022/01/19 07:31:13;;;;;;;21.33;11.00;;;;;;;;;;5033445;28;20033;-58
2022/01/19 07:33:39;;;;;;;24.90;10.15;;;;;;;;;;5034015;28;20132;-56
2022/01/19 07:36:04;;;;;;;26.33;10.00;;;;;;;;;;5031913;28;20389;-56
2022/01/19 07:38:30;;;;;;;22.60;8.75;;;;;;;;;;5033459;28;20056;-56
2022/01/19 07:40:55;;;;;;;24.25;8.88;;;;;;;;;;5032727;28;20039;-58
2022/01/19 07:43:21;;;;;;;25.83;10.30;;;;;;;;;;5031855;28;20052;-57
2022/01/19 07:45:46;;;;;;;24.40;8.90;;;;;;;;;;5032639;28;20033;-58
2022/01/19 07:48:12;;;;;;;23.30;9.32;;;;;;;;;;5033144;28;20025;-64
2022/01/19 07:50:38;;;;;;;24.23;9.93;;;;;;;;;;5033508;28;20125;-66
2022/01/19 07:53:04;;;;;;;22.63;10.25;;;;;;;;;;5032725;28;20084;-68
2022/01/19 07:55:29;;;;;;;23.58;10.07;;;;;;;;;;5033051;28;20018;-67
2022/01/19 07:57:55;;;;;;;22.27;9.88;;;;;;;;;;5016517;28;20025;-56
2022/01/19 08:00:21;;;;;;;24.17;10.02;;;;;;;;;;5023195;28;20161;-62
2022/01/19 08:02:47;;;;;;;17.40;8.85;;;;;;;;;;5007227;28;20116;-65
2022/01/19 08:05:12;;;;;;;22.45;10.20;;;;;;;;;;5030950;28;20056;-64
2022/01/19 08:07:38;;;;;;;21.50;9.52;;;;;;;;;;5021922;28;20065;-58
2022/01/19 08:10:06;;;;;;;20.33;8.65;;;;;;;;;;5023003;28;20025;-62
2022/01/19 08:12:31;;;;;;;19.23;9.75;;;;;;;;;;5027236;28;20041;-66
2022/01/19 08:14:58;;;;;;;23.65;9.20;;;;;;;;;;5025223;28;20041;-67
2022/01/19 08:17:27;;;;;;;17.70;8.27;;;;;;;;;;5028534;28;20033;-67
2022/01/19 08:19:54;;;;;;;24.80;8.82;;;;;;;;;;5014152;28;20033;-62
2022/01/19 08:22:20;;;;;;;18.45;9.27;;;;;;;;;;5027665;28;20030;-64
2022/01/19 08:24:45;;;;;;;23.55;10.43;;;;;;;;;;5023372;28;20079;-60
2022/01/19 08:27:11;;;;;;;26.20;9.80;;;;;;;;;;5029948;28;20034;-54
2022/01/19 08:29:37;;;;;;;23.58;9.55;;;;;;;;;;5026419;28;20074;-60
2022/01/19 08:32:04;;;;;;;23.27;9.50;;;;;;;;;;5030397;28;20017;-62
2022/01/19 08:34:30;;;;;;;18.17;10.10;;;;;;;;;;5023475;28;20029;-65
2022/01/19 08:36:56;;;;;;;22.98;9.95;;;;;;;;;;5027116;28;20119;-62
2022/01/19 08:39:22;;;;;;;17.80;8.77;;;;;;;;;;5030762;28;20037;-62
2022/01/19 08:41:48;;;;;;;23.25;11.00;;;;;;;;;;5029436;28;20022;-59
2022/01/19 08:44:13;;;;;;;25.02;11.70;;;;;;;;;;5016454;28;20022;-67
2022/01/19 08:46:40;;;;;;;23.88;11.70;;;;;;;;;;5028428;28;20049;-61
2022/01/19 08:49:05;;;;;;;25.15;10.50;;;;;;;;;;5024037;28;20025;-67
2022/01/19 08:51:31;;;;;;;20.77;11.15;;;;;;;;;;5031765;28;20060;-67
2022/01/19 08:53:56;;;;;;;22.38;11.43;;;;;;;;;;5018306;28;20380;-58
2022/01/19 08:56:22;;;;;;;20.88;10.38;;;;;;;;;;5024631;28;20045;-67
2022/01/19 08:58:47;;;;;;;27.40;12.00;;;;;;;;;;5031615;28;20104;-67
2022/01/19 09:01:13;;;;;;;21.90;11.13;;;;;;;;;;5027357;28;20040;-67
2022/01/19 09:03:38;;;;;;;24.15;11.50;;;;;;;;;;5025551;28;20026;-64
2022/01/19 09:06:04;;;;;;;27.42;11.55;;;;;;;;;;5021700;28;20021;-66
2022/01/19 09:08:31;;;;;;;22.17;10.57;;;;;;;;;;5026508;28;20050;-66
2022/01/19 09:10:58;;;;;;;19.85;11.07;;;;;;;;;;5015531;28;20473;-56
2022/01/19 09:13:25;;;;;;;21.70;10.50;;;;;;;;;;5027369;28;20037;-60
2022/01/19 09:15:50;;;;;;;26.95;10.45;;;;;;;;;;5025188;28;20105;-65
2022/01/19 09:18:16;;;;;;;24.70;10.50;;;;;;;;;;5024967;28;20120;-58
2022/01/19 09:20:42;;;;;;;24.27;9.85;;;;;;;;;;5019431;28;20029;-59
2022/01/19 09:23:07;;;;;;;23.15;9.30;;;;;;;;;;5020996;28;20041;-58
2022/01/19 09:25:33;;;;;;;22.55;9.70;;;;;;;;;;5025793;28;20033;-66
2022/01/19 09:27:59;;;;;;;18.50;9.60;;;;;;;;;;5024916;28;20083;-57
2022/01/19 09:30:25;;;;;;;19.83;9.65;;;;;;;;;;5017104;28;20123;-65
2022/01/19 09:33:05;;;;;;;19.75;9.80;;;;;;;;;;5019211;28;20025;-64
2022/01/19 09:35:49;;;;;;;20.05;7.63;;;;;;;;;;5023377;28;20034;-60
2022/01/19 09:38:15;;;;;;;25.65;10.93;;;;;;;;;;5030666;28;20032;-67
2022/01/19 09:40:40;;;;;;;17.92;8.38;;;;;;;;;;5021485;28;20034;-67
2022/01/19 09:43:07;;;;;;;19.35;8.82;;;;;;;;;;5022789;28;20067;-68
2022/01/19 09:45:33;;;;;;;21.92;9.57;;;;;;;;;;5026268;28;20034;-68
2022/01/19 09:47:59;;;;;;;21.52;9.85;;;;;;;;;;5018695;28;20391;-66
2022/01/19 09:50:24;;;;;;;17.45;8.85;;;;;;;;;;5024356;28;20033;-67
2022/01/19 09:52:50;;;;;;;23.90;9.50;;;;;;;;;;5026155;28;20037;-66
2022/01/19 09:55:16;;;;;;;19.27;8.85;;;;;;;;;;5024458;28;20044;-68
2022/01/19 09:57:41;;;;;;;21.00;9.23;;;;;;;;;;5024804;28;20032;-65
2022/01/19 10:00:07;;;;;;;22.13;8.80;;;;;;;;;;5028174;28;20410;-68
2022/01/19 10:02:32;;;;;;;21.75;9.73;;;;;;;;;;5024598;28;20392;-63
2022/01/19 10:05:05;;;;;;;20.77;8.93;;;;;;;;;;5026033;28;20102;-67
2022/01/19 10:07:31;;;;;;;27.20;10.73;;;;;;;;;;5025538;28;20048;-67
2022/01/19 10:09:58;;;;;;;18.58;8.30;;;;;;;;;;5024979;28;20029;-60
2022/01/19 10:18:06;;;;;;;19.83;8.85;;;;;;;;;;5027192;28;20083;-67
2022/01/19 10:20:32;;;;;;;21.88;9.05;;;;;;;;;;5026841;28;20044;-67
2022/01/19 10:22:57;;;;;;;20.52;9.40;;;;;;;;;;5009936;28;20021;-67
2022/01/19 10:25:23;;;;;;;20.77;9.68;;;;;;;;;;5021293;28;20162;-66
2022/01/19 10:27:48;;;;;;;17.48;9.77;;;;;;;;;;5023547;28;20025;-66
2022/01/19 10:30:19;;;;;;;20.60;9.40;;;;;;;;;;5020991;28;20457;-67
2022/01/19 10:32:52;;;;;;;19.95;9.18;;;;;;;;;;5033504;28;20022;-68
2022/01/19 10:35:38;;;;;;;18.10;9.13;;;;;;;;;;5022779;28;20034;-66
2022/01/19 10:38:27;;;;;;;22.48;9.45;;;;;;;;;;5024346;28;20021;-66
2022/01/19 10:40:57;;;;;;;23.90;10.88;;;;;;;;;;5024071;28;20038;-67
2022/01/19 10:43:28;;;;;;;25.38;10.98;;;;;;;;;;5023858;28;20033;-63
2022/01/19 10:45:55;;;;;;;24.23;10.80;;;;;;;;;;5026660;28;20036;-66
2022/01/19 10:48:37;;;;;;;18.48;10.98;;;;;;;;;;5021924;28;20049;-64
2022/01/19 10:51:21;;;;;;;23.02;10.65;;;;;;;;;;5029226;28;20392;-65
2022/01/19 10:54:04;;;;;;;23.73;10.10;;;;;;;;;;5025468;28;20049;-67
2022/01/19 10:56:30;;;;;;;20.05;10.43;;;;;;;;;;5020734;28;20334;-62
2022/01/19 10:58:59;;;;;;;21.70;11.20;;;;;;;;;;5032017;28;20032;-66
2022/01/19 11:01:39;;;;;;;21.98;11.02;;;;;;;;;;5031515;28;20057;-66
2022/01/19 11:04:35;;;;;;;20.90;10.48;;;;;;;;;;5027732;28;20045;-60
2022/01/19 11:07:22;;;;;;;25.38;10.05;;;;;;;;;;5024714;28;20041;-67
2022/01/19 11:09:58;;;;;;;18.77;10.77;;;;;;;;;;5027130;28;20108;-58
2022/01/19 11:12:28;;;;;;;21.17;12.05;;;;;;;;;;5026437;28;20485;-63
2022/01/19 11:14:53;;;;;;;19.05;10.00;;;;;;;;;;5024558;28;20536;-64
2022/01/19 11:17:19;;;;;;;22.33;9.52;;;;;;;;;;5023747;28;20104;-67
2022/01/19 11:19:45;;;;;;;18.90;10.05;;;;;;;;;;5019299;28;20037;-61
2022/01/19 11:22:25;;;;;;;23.67;11.25;;;;;;;;;;5011176;28;20072;-66
2022/01/19 11:24:56;;;;;;;;;;;;;;;;;;5026167;28;20029;-57
2022/01/19 11:27:23;;;;;;;22.15;10.63;;;;;;;;;;5019434;28;20046;-63
2022/01/19 11:30:10;;;;;;;24.08;11.20;;;;;;;;;;5008969;28;20026;-55
2022/01/19 11:32:36;;;;;;;19.38;11.02;;;;;;;;;;5017458;28;20054;-61
2022/01/19 11:35:03;;;;;;;25.35;10.85;;;;;;;;;;5022512;28;20138;-59
2022/01/19 11:37:41;;;;;;;24.48;11.07;;;;;;;;;;5032856;28;20033;-55
2022/01/19 11:40:16;;;;;;;24.70;10.80;;;;;;;;;;5024409;28;20036;-61
2022/01/19 11:42:42;;;;;;;21.08;11.55;;;;;;;;;;5031311;28;20028;-60
2022/01/19 11:45:29;;;;;;;25.70;13.98;;;;;;;;;;5032902;28;20025;-61
2022/01/19 11:48:25;;;;;;;27.20;11.63;;;;;;;;;;5033074;28;20025;-58
2022/01/19 11:50:53;;;;;;;19.13;10.65;;;;;;;;;;5007458;28;20382;-61
2022/01/19 11:53:20;;;;;;;24.55;12.52;;;;;;;;;;5024502;28;20476;-54
2022/01/19 11:56:10;;;;;;;28.33;11.27;;;;;;;;;;5024284;28;20465;-59
2022/01/19 11:58:36;;;;;;;;;;;;;;;;;;5023599;28;20029;-64
2022/01/19 12:01:19;;;;;;;19.98;9.68;;;;;;;;;;5024792;28;19913;-64
2022/01/19 12:03:44;;;;;;;19.70;9.57;;;;;;;;;;5022729;28;20404;-59
2022/01/19 12:06:29;;;;;;;20.23;8.57;;;;;;;;;;5032180;28;20037;-67
2022/01/19 12:08:56;;;;;;;39.10;10.90;;;;;;;;;;5023302;28;20124;-68
2022/01/19 12:11:22;;;;;;;21.13;9.88;;;;;;;;;;5028615;28;20374;-57
2022/01/19 12:17:01;;;;;;;25.90;9.98;;;;;;;;;;5018189;28;20429;-58
2022/01/19 12:19:35;;;;;;;19.02;9.30;;;;;;;;;;5021960;28;20030;-57
2022/01/19 12:22:05;;;;;;;21.67;9.25;;;;;;;;;;5031716;28;20041;-58
2022/01/19 12:24:38;;;;;;;19.33;9.32;;;;;;;;;;5022501;28;20029;-58
2022/01/19 12:27:10;;;;;;;29.17;9.63;;;;;;;;;;5018822;28;20037;-62
2022/01/19 12:29:36;;;;;;;26.48;9.88;;;;;;;;;;5021511;28;20153;-62
2022/01/19 12:32:25;;;;;;;23.52;8.68;;;;;;;;;;5025512;28;20032;-58
2022/01/19 12:35:18;;;;;;;17.85;8.20;;;;;;;;;;5019360;28;20029;-57
2022/01/19 12:37:46;;;;;;;17.25;7.88;;;;;;;;;;5020206;28;20042;-58
2022/01/19 12:40:17;;;;;;;20.35;8.15;;;;;;;;;;5032047;28;20036;-59
2022/01/19 12:42:50;;;;;;;16.33;7.55;;;;;;;;;;5027088;28;20112;-61
2022/01/19 12:45:22;;;;;;;19.10;7.70;;;;;;;;;;5006651;28;20040;-61
2022/01/19 12:47:53;;;;;;;18.63;7.68;;;;;;;;;;5020792;28;20484;-60
2022/01/19 12:50:19;;;;;;;15.80;7.65;;;;;;;;;;5022632;28;20041;-58
2022/01/19 12:52:53;;;;;;;15.40;7.05;;;;;;;;;;5022104;28;20389;-59
2022/01/19 12:55:29;;;;;;;16.27;6.63;;;;;;;;;;5019586;28;20435;-57
2022/01/19 12:57:57;;;;;;;15.73;6.78;;;;;;;;;;5015210;28;20038;-54
2022/01/19 13:00:25;;;;;;;18.42;7.22;;;;;;;;;;5023062;28;20068;-61
2022/01/19 13:02:50;;;;;;;13.73;6.50;;;;;;;;;;5024878;28;20022;-56
2022/01/19 13:05:20;;;;;;;16.75;6.50;;;;;;;;;;5030552;28;20102;-66
2022/01/19 13:07:53;;;;;;;12.95;6.97;;;;;;;;;;5026047;28;20440;-61
2022/01/19 13:13:09;;;;;;;17.85;6.45;;;;;;;;;;5031470;28;20029;-66
2022/01/19 13:15:47;;;;;;;14.02;6.57;;;;;;;;;;5031177;28;20439;-67
2022/01/19 13:18:42;;;;;;;12.48;5.38;;;;;;;;;;5022703;28;20025;-55
2022/01/19 13:21:11;;;;;;;18.58;6.88;;;;;;;;;;5015693;28;20037;-60
2022/01/19 13:23:52;;;;;;;22.60;7.35;;;;;;;;;;5018353;28;20113;-57
2022/01/19 13:26:18;;;;;;;12.73;6.50;;;;;;;;;;5026689;28;20033;-59
2022/01/19 13:28:44;;;;;;;12.35;6.50;;;;;;;;;;5026704;28;20038;-60
2022/01/19 13:31:10;;;;;;;13.95;5.32;;;;;;;;;;5027174;28;20041;-55
2022/01/19 13:33:36;;;;;;;14.95;6.10;;;;;;;;;;5001594;28;20034;-57
2022/01/19 13:36:02;;;;;;;19.67;6.63;;;;;;;;;;5027664;28;20021;-62
2022/01/19 13:38:27;;;;;;;18.30;6.00;;;;;;;;;;5022599;28;20056;-57
2022/01/19 13:41:08;;;;;;;15.70;6.80;;;;;;;;;;5021459;28;20469;-58
2022/01/19 13:43:39;;;;;;;16.65;6.97;;;;;;;;;;5022535;28;20063;-64
2022/01/19 13:46:17;;;;;;;14.45;7.18;;;;;;;;;;5023091;28;20504;-59
2022/01/19 13:48:45;;;;;;;16.92;6.72;;;;;;;;;;5021442;28;20033;-54
2022/01/19 13:51:14;;;;;;;17.92;7.47;;;;;;;;;;5027725;28;20029;-58
2022/01/19 13:53:50;;;;;;;19.35;7.68;;;;;;;;;;5026659;28;20028;-60
2022/01/19 13:56:43;;;;;;;15.88;6.43;;;;;;;;;;5027874;28;20029;-55
2022/01/19 13:59:16;;;;;;;21.63;7.45;;;;;;;;;;5026399;28;20052;-63
2022/01/19 14:01:57;;;;;;;17.20;6.80;;;;;;;;;;5022996;28;20031;-56
2022/01/19 14:04:25;;;;;;;14.77;6.78;;;;;;;;;;5027046;28;20038;-55
2022/01/19 14:06:50;;;;;;;18.83;6.05;;;;;;;;;;5028294;28;20468;-57
2022/01/19 14:09:34;;;;;;;12.57;6.65;;;;;;;;;;5024266;28;20080;-55
2022/01/19 14:12:19;;;;;;;15.63;7.18;;;;;;;;;;5023386;28;20073;-60
2022/01/19 14:14:47;;;;;;;17.77;5.72;;;;;;;;;;5027772;28;20028;-62
2022/01/19 14:17:33;;;;;;;18.55;7.75;;;;;;;;;;5022637;28;20026;-54
2022/01/19 14:20:00;;;;;;;15.05;7.53;;;;;;;;;;5025415;28;20064;-58
2022/01/19 14:22:28;;;;;;;14.57;6.60;;;;;;;;;;5018660;28;20538;-55
2022/01/19 14:25:05;;;;;;;13.23;7.32;;;;;;;;;;5027969;28;20020;-59
2022/01/19 14:27:35;;;;;;;17.73;7.60;;;;;;;;;;5018548;28;20030;-55
2022/01/19 14:30:13;;;;;;;19.48;7.32;;;;;;;;;;5030072;28;20022;-57
2022/01/19 14:33:05;;;;;;;22.45;8.88;;;;;;;;;;5014414;28;20034;-57
2022/01/19 14:35:38;;;;;;;19.02;7.90;;;;;;;;;;5009696;28;20045;-61
2022/01/19 14:38:25;;;;;;;23.02;9.35;;;;;;;;;;5006535;28;20021;-62
2022/01/19 14:41:00;;;;;;;20.60;8.93;;;;;;;;;;5032177;28;20022;-59
2022/01/19 14:43:40;;;;;;;16.55;9.27;;;;;;;;;;5030618;28;20503;-56
2022/01/19 14:46:11;;;;;;;19.10;8.68;;;;;;;;;;5026887;28;20030;-60
2022/01/19 14:48:45;;;;;;;16.55;8.07;;;;;;;;;;5022205;28;20025;-59
2022/01/19 14:51:31;;;;;;;17.85;8.40;;;;;;;;;;5026836;28;20082;-61
2022/01/19 14:54:04;;;;;;;22.60;8.82;;;;;;;;;;5022597;28;20125;-59
2022/01/19 14:56:29;;;;;;;16.58;8.23;;;;;;;;;;5028219;28;20039;-65
2022/01/19 14:59:11;;;;;;;18.98;8.68;;;;;;;;;;5029541;28;20021;-58
2022/01/19 15:01:39;;;;;;;19.08;9.38;;;;;;;;;;5027618;28;20136;-55
2022/01/19 15:04:07;;;;;;;22.50;8.57;;;;;;;;;;5026523;28;20025;-56
2022/01/19 15:06:33;;;;;;;18.98;9.70;;;;;;;;;;5027221;28;20045;-60
2022/01/19 15:08:58;;;;;;;23.48;9.15;;;;;;;;;;5027257;28;20445;-56
2022/01/19 15:11:24;;;;;;;18.90;8.48;;;;;;;;;;5027247;28;20036;-67
2022/01/19 15:13:50;;;;;;;14.93;9.30;;;;;;;;;;5028409;28;20022;-58
2022/01/19 15:16:16;;;;;;;17.92;9.77;;;;;;;;;;5022135;28;20040;-62
2022/01/19 15:18:42;;;;;;;18.77;11.32;;;;;;;;;;5033596;28;20462;-57
2022/01/19 15:21:08;;;;;;;19.60;11.23;;;;;;;;;;5008441;28;20038;-59
2022/01/19 15:23:33;;;;;;;17.02;11.75;;;;;;;;;;5030137;28;20041;-63
2022/01/19 15:26:00;;;;;;;14.02;9.15;;;;;;;;;;5021530;28;20030;-65
2022/01/19 15:28:26;;;;;;;20.05;12.05;;;;;;;;;;5025049;28;20527;-59
2022/01/19 15:30:51;;;;;;;19.35;12.80;;;;;;;;;;5024878;28;20179;-59
2022/01/19 15:33:17;;;;;;;17.25;11.55;;;;;;;;;;5030659;28;20522;-57
2022/01/19 15:35:43;;;;;;;17.55;10.75;;;;;;;;;;5020613;28;20492;-56
2022/01/19 15:38:10;;;;;;;15.48;10.07;;;;;;;;;;5023811;28;20029;-56
2022/01/19 15:40:38;;;;;;;17.45;11.55;;;;;;;;;;4997578;28;20393;-57
2022/01/19 15:43:07;;;;;;;19.40;12.77;;;;;;;;;;5032399;28;20040;-57
2022/01/19 15:45:35;;;;;;;22.08;12.65;;;;;;;;;;5016953;28;20025;-55
2022/01/19 15:48:03;;;;;;;18.95;11.32;;;;;;;;;;5019810;28;20075;-56
2022/01/19 15:50:28;;;;;;;17.08;10.75;;;;;;;;;;5015982;28;20068;-62
2022/01/19 15:52:54;;;;;;;22.80;13.98;;;;;;;;;;5026202;28;20022;-64
2022/01/19 15:55:20;;;;;;;26.20;13.45;;;;;;;;;;5018047;28;20022;-67
2022/01/19 15:57:45;;;;;;;19.60;11.27;;;;;;;;;;5023694;28;20026;-61
2022/01/19 16:00:11;;;;;;;15.15;8.82;;;;;;;;;;5024300;28;20033;-64
2022/01/19 16:02:37;;;;;;;14.40;8.68;;;;;;;;;;5016490;28;20500;-59
2022/01/19 16:05:03;;;;;;;14.02;7.70;;;;;;;;;;5018902;28;20532;-58